createdAt,value
2023-02-08T00:01:10.263Z,88.10
2023-02-08T00:03:37.206Z,87.80
2023-02-08T00:06:06.763Z,88.60
2023-02-08T00:08:36.826Z,88.50
2023-02-08T00:11:04.561Z,89.10
2023-02-08T00:13:31.734Z,89.00
2023-02-08T00:15:58.487Z,88.70
2023-02-08T00:18:25.282Z,87.90
2023-02-08T00:20:52.356Z,87.50
2023-02-08T00:23:20.377Z,87.40
2023-02-08T00:25:47.103Z,87.20
2023-02-08T00:28:15.641Z,86.60
2023-02-08T00:30:43.008Z,87.80
2023-02-08T00:33:10.426Z,87.30
2023-02-08T00:35:37.573Z,87.90
2023-02-08T00:38:04.447Z,88.30
2023-02-08T00:40:32.529Z,88.70
2023-02-08T00:42:59.266Z,89.00
2023-02-08T00:45:26.015Z,89.30
2023-02-08T00:47:52.722Z,89.00
2023-02-08T00:50:19.568Z,88.90
2023-02-08T00:52:46.291Z,88.50
2023-02-08T00:55:13.032Z,87.90
2023-02-08T00:57:41.082Z,87.60
2023-02-08T01:00:10.191Z,87.50
2023-02-08T01:02:38.210Z,87.30
2023-02-08T01:05:05.648Z,87.40
2023-02-08T01:07:32.395Z,87.50
2023-02-08T01:09:59.175Z,87.70
2023-02-08T01:12:25.937Z,88.20
2023-02-08T01:14:54.119Z,88.30
2023-02-08T01:17:20.936Z,88.50
2023-02-08T01:19:47.828Z,88.80
2023-02-08T01:22:14.564Z,89.10
2023-02-08T01:24:41.284Z,89.20
2023-02-08T01:27:08.054Z,89.50
2023-02-08T01:29:34.953Z,89.90
2023-02-08T01:32:03.124Z,89.80
2023-02-08T01:34:30.016Z,89.90
2023-02-08T01:36:56.886Z,89.70
2023-02-08T01:39:24.483Z,89.70
2023-02-08T01:41:51.198Z,89.70
2023-02-08T01:44:55.413Z,89.70
2023-02-08T01:47:23.601Z,89.70
2023-02-08T01:49:50.417Z,89.40
2023-02-08T01:52:20.356Z,89.00
2023-02-08T01:54:51.308Z,89.00
2023-02-08T01:57:19.755Z,89.30
2023-02-08T01:59:52.159Z,89.50
2023-02-08T02:02:22.931Z,89.40
2023-02-08T02:04:52.101Z,89.30
2023-02-08T02:07:21.292Z,89.00
2023-02-08T02:09:53.255Z,88.70
2023-02-08T02:12:21.116Z,88.60
2023-02-08T02:14:48.738Z,88.60
2023-02-08T02:17:18.348Z,88.50
2023-02-08T02:19:54.692Z,88.60
2023-02-08T02:22:47.333Z,88.50
2023-02-08T02:25:43.670Z,88.50
2023-02-08T02:28:28.188Z,88.30
2023-02-08T02:31:18.553Z,88.20
2023-02-08T02:33:57.819Z,88.10
2023-02-08T02:36:33.119Z,88.10
2023-02-08T02:39:07.390Z,88.10
2023-02-08T02:41:40.272Z,88.00
2023-02-08T02:44:14.663Z,88.30
2023-02-08T02:46:46.888Z,88.10
2023-02-08T02:49:18.633Z,87.90
2023-02-08T02:51:51.031Z,87.50
2023-02-08T02:54:22.934Z,87.30
2023-02-08T02:56:53.413Z,87.40
2023-02-08T02:59:21.548Z,87.50
2023-02-08T03:01:48.443Z,87.60
2023-02-08T03:04:18.406Z,87.50
2023-02-08T03:07:01.585Z,87.30
2023-02-08T03:09:54.620Z,87.30
2023-02-08T03:12:34.180Z,87.60
2023-02-08T03:15:11.248Z,87.70
2023-02-08T03:17:54.969Z,87.70
2023-02-08T03:20:26.183Z,87.70
2023-02-08T03:23:02.297Z,87.90
2023-02-08T03:25:34.622Z,88.10
2023-02-08T03:28:07.336Z,88.30
2023-02-08T03:30:40.226Z,88.20
2023-02-08T03:33:12.159Z,88.40
2023-02-08T03:35:48.803Z,88.40
2023-02-08T03:38:22.546Z,88.50
2023-02-08T03:40:51.050Z,88.50
2023-02-08T03:43:23.289Z,88.40
2023-02-08T03:45:52.618Z,88.30
2023-02-08T03:48:21.712Z,88.40
2023-02-08T03:50:53.521Z,88.30
2023-02-08T03:53:22.825Z,88.20
2023-02-08T03:55:56.197Z,88.30
2023-02-08T03:58:26.437Z,88.40
2023-02-08T04:00:58.183Z,88.60
2023-02-08T04:03:27.327Z,88.60
2023-02-08T04:05:56.217Z,88.40
2023-02-08T04:08:22.984Z,88.30
2023-02-08T04:10:49.958Z,88.30
2023-02-08T04:13:16.913Z,88.50
2023-02-08T04:15:43.723Z,88.70
2023-02-08T04:18:10.559Z,88.60
2023-02-08T04:20:37.363Z,88.70
2023-02-08T04:23:05.478Z,88.70
2023-02-08T04:25:32.378Z,88.70
2023-02-08T04:27:59.218Z,88.70
2023-02-08T04:30:26.079Z,89.20
2023-02-08T04:32:52.815Z,89.40
2023-02-08T04:35:19.601Z,89.30
2023-02-08T04:37:46.377Z,89.20
2023-02-08T04:40:14.504Z,89.30
2023-02-08T04:42:41.247Z,89.30
2023-02-08T04:45:09.167Z,89.00
2023-02-08T04:47:35.961Z,88.70
2023-02-08T04:50:02.941Z,89.00
2023-02-08T04:52:29.772Z,89.20
2023-02-08T04:54:56.686Z,89.50
2023-02-08T04:57:24.887Z,89.80
2023-02-08T04:59:51.724Z,89.70
2023-02-08T05:02:18.486Z,89.80
2023-02-08T05:04:45.329Z,89.70
2023-02-08T05:07:12.150Z,89.20
2023-02-08T05:09:38.901Z,89.00
2023-02-08T05:12:05.870Z,88.70
2023-02-08T05:14:34.024Z,88.90
2023-02-08T05:17:00.783Z,88.50
2023-02-08T05:19:27.643Z,88.50
2023-02-08T05:21:54.467Z,88.30
2023-02-08T05:24:21.225Z,88.40
2023-02-08T05:26:48.091Z,88.50
2023-02-08T05:29:14.903Z,88.60
2023-02-08T05:31:43.109Z,88.80
2023-02-08T05:34:09.953Z,88.50
2023-02-08T05:36:36.700Z,88.40
2023-02-08T05:39:03.756Z,88.10
2023-02-08T05:41:30.516Z,88.20
2023-02-08T05:43:57.356Z,88.70
2023-02-08T05:46:24.120Z,89.50
2023-02-08T05:48:52.413Z,89.80
2023-02-08T05:51:19.179Z,90.10
2023-02-08T05:53:46.027Z,90.30
2023-02-08T05:56:12.939Z,90.30
2023-02-08T05:58:39.740Z,90.40
2023-02-08T06:01:09.011Z,90.40
2023-02-08T06:03:35.756Z,90.30
2023-02-08T06:06:04.397Z,90.30
2023-02-08T06:08:31.285Z,90.30
2023-02-08T06:10:58.067Z,90.20
2023-02-08T06:13:24.887Z,90.30
2023-02-08T06:15:51.646Z,90.30
2023-02-08T06:18:18.512Z,90.30
2023-02-08T06:20:45.325Z,90.30
2023-02-08T06:23:13.467Z,90.20
2023-02-08T06:25:40.221Z,90.20
2023-02-08T06:28:06.984Z,90.30
2023-02-08T06:30:33.765Z,90.30
2023-02-08T06:33:00.520Z,90.20
2023-02-08T06:35:27.328Z,90.30
2023-02-08T06:37:54.068Z,90.40
2023-02-08T06:40:22.307Z,90.50
2023-02-08T06:42:49.597Z,90.40
2023-02-08T06:45:16.664Z,90.30
2023-02-08T06:47:43.464Z,90.20
2023-02-08T06:50:10.961Z,90.30
2023-02-08T06:52:38.184Z,90.40
2023-02-08T06:55:05.835Z,90.30
2023-02-08T06:57:33.972Z,90.40
2023-02-08T07:00:00.751Z,90.40
2023-02-08T07:02:27.598Z,90.40
2023-02-08T07:04:54.456Z,90.50
2023-02-08T07:07:21.254Z,90.60
2023-02-08T07:09:48.008Z,90.60
2023-02-08T07:12:14.874Z,90.30
2023-02-08T07:14:43.811Z,90.40
2023-02-08T07:17:11.287Z,90.50
2023-02-08T07:19:38.316Z,90.20
2023-02-08T07:22:07.523Z,90.10
2023-02-08T07:24:35.290Z,90.10
2023-02-08T07:27:02.100Z,90.20
2023-02-08T07:29:29.508Z,90.00
2023-02-08T07:31:57.897Z,89.60
2023-02-08T07:34:24.853Z,89.40
2023-02-08T07:36:51.737Z,89.20
2023-02-08T07:39:18.472Z,89.00
2023-02-08T07:41:45.253Z,88.90
2023-02-08T07:44:12.078Z,88.80
2023-02-08T07:46:40.053Z,88.80
2023-02-08T07:49:08.195Z,89.00
2023-02-08T07:51:35.183Z,89.10
2023-02-08T07:54:02.101Z,89.20
2023-02-08T07:56:28.888Z,89.20
2023-02-08T07:58:55.671Z,89.30
2023-02-08T08:01:23.199Z,89.70
2023-02-08T08:03:50.978Z,89.90
2023-02-08T08:06:20.097Z,90.10
2023-02-08T08:08:46.996Z,90.20
2023-02-08T08:11:13.798Z,90.30
2023-02-08T08:13:40.605Z,90.30
2023-02-08T08:16:07.700Z,90.50
2023-02-08T08:18:34.796Z,90.50
2023-02-08T08:21:01.574Z,90.60
2023-02-08T08:23:29.746Z,90.80
2023-02-08T08:25:56.541Z,91.20
2023-02-08T08:28:23.438Z,91.10
2023-02-08T08:30:50.425Z,91.00
2023-02-08T08:33:17.326Z,91.10
2023-02-08T08:35:44.115Z,91.10
2023-02-08T08:38:11.031Z,91.10
2023-02-08T08:40:39.915Z,91.20
2023-02-08T08:43:06.863Z,91.20
2023-02-08T08:45:33.683Z,91.30
2023-02-08T08:48:18.574Z,91.60
2023-02-08T08:50:48.393Z,91.50
2023-02-08T08:53:19.101Z,91.50
2023-02-08T08:55:47.622Z,91.60
2023-02-08T08:58:20.535Z,91.50
2023-02-08T09:00:50.421Z,91.90
2023-02-08T09:03:36.422Z,91.90
2023-02-08T09:06:13.420Z,91.90
2023-02-08T09:08:43.266Z,92.00
2023-02-08T09:11:13.225Z,92.30
2023-02-08T09:13:40.832Z,92.20
2023-02-08T09:16:10.341Z,92.30
2023-02-08T09:18:37.316Z,92.30
2023-02-08T09:21:06.479Z,92.40
2023-02-08T09:23:33.372Z,92.30
2023-02-08T09:26:02.654Z,92.60
2023-02-08T09:28:30.956Z,92.50
2023-02-08T09:30:57.785Z,92.40
2023-02-08T09:33:24.952Z,92.60
2023-02-08T09:35:51.747Z,92.50
2023-02-08T09:38:18.560Z,92.50
2023-02-08T09:41:04.686Z,92.60
2023-02-08T09:43:40.874Z,92.70
2023-02-08T09:46:15.552Z,93.00
2023-02-08T09:48:42.838Z,92.90
2023-02-08T09:51:19.980Z,92.80
2023-02-08T09:53:51.403Z,93.00
2023-02-08T09:56:23.512Z,93.10
2023-02-08T09:58:53.529Z,93.10
2023-02-08T10:01:25.043Z,93.20
2023-02-08T10:03:56.834Z,93.40
2023-02-08T10:06:23.822Z,93.50
2023-02-08T10:08:52.311Z,93.60
2023-02-08T10:11:42.258Z,93.60
2023-02-08T10:14:27.280Z,93.60
2023-02-08T10:17:03.375Z,93.60
2023-02-08T10:19:50.187Z,93.70
2023-02-08T10:22:28.082Z,93.60
2023-02-08T10:25:16.703Z,93.80
2023-02-08T10:27:52.820Z,94.00
2023-02-08T10:30:28.824Z,94.00
2023-02-08T10:33:00.768Z,94.20
2023-02-08T10:35:30.737Z,94.10
2023-02-08T10:37:58.816Z,94.20
2023-02-08T10:40:35.592Z,94.30
2023-02-08T10:43:24.351Z,94.10
2023-02-08T10:46:00.863Z,94.30
2023-02-08T10:48:41.101Z,94.40
2023-02-08T10:51:11.903Z,94.40
2023-02-08T10:53:38.668Z,94.40
2023-02-08T10:56:06.569Z,94.60
2023-02-08T10:58:33.472Z,94.70
2023-02-08T11:01:01.905Z,94.80
2023-02-08T11:03:29.876Z,94.70
2023-02-08T11:05:56.870Z,94.70
2023-02-08T11:08:25.269Z,94.80
2023-02-08T11:11:04.042Z,94.80
2023-02-08T11:13:36.563Z,94.70
2023-02-08T11:16:06.977Z,94.70
2023-02-08T11:18:36.051Z,94.70
2023-02-08T11:21:05.347Z,94.90
2023-02-08T11:23:34.360Z,94.80
2023-02-08T11:26:17.976Z,94.80
2023-02-08T11:28:55.713Z,94.60
2023-02-08T11:31:23.798Z,94.50
2023-02-08T11:34:00.146Z,94.70
2023-02-08T11:36:27.874Z,94.50
2023-02-08T11:38:55.032Z,94.60
2023-02-08T11:41:22.815Z,94.50
2023-02-08T11:44:00.759Z,94.60
2023-02-08T11:46:35.490Z,94.70
2023-02-08T11:49:08.632Z,95.30
2023-02-08T11:51:37.350Z,94.70
2023-02-08T11:54:27.236Z,94.70
2023-02-08T11:57:21.276Z,94.50
2023-02-08T11:59:51.058Z,94.60
2023-02-08T12:02:40.969Z,94.60
2023-02-08T12:05:15.403Z,94.60
2023-02-08T12:07:56.767Z,94.60
2023-02-08T12:10:53.751Z,94.60
2023-02-08T12:17:27.745Z,94.40
2023-02-08T12:20:31.390Z,94.80
2023-02-08T12:23:12.040Z,94.60
2023-02-08T12:25:45.193Z,94.80
2023-02-08T12:28:25.511Z,94.80
2023-02-08T12:31:01.848Z,94.80
2023-02-08T12:33:40.151Z,95.10
2023-02-08T12:36:37.686Z,95.10
2023-02-08T12:39:22.805Z,95.10
2023-02-08T12:42:08.923Z,95.20
2023-02-08T12:44:46.593Z,95.40
2023-02-08T12:47:34.604Z,95.70
2023-02-08T12:50:12.688Z,95.30
2023-02-08T12:52:44.065Z,95.30
2023-02-08T12:55:17.755Z,95.40
2023-02-08T12:57:47.959Z,95.50
2023-02-08T13:00:21.425Z,95.00
2023-02-08T13:02:56.123Z,95.40
2023-02-08T13:05:24.004Z,95.30
2023-02-08T13:08:01.776Z,95.30
2023-02-08T13:10:33.219Z,95.70
2023-02-08T13:13:05.997Z,96.10
2023-02-08T13:15:38.576Z,95.60
2023-02-08T13:18:14.352Z,95.70
2023-02-08T13:20:44.077Z,95.80
2023-02-08T13:23:18.009Z,95.90
2023-02-08T13:25:45.072Z,95.70
2023-02-08T13:28:20.482Z,95.90
2023-02-08T13:30:54.982Z,95.90
2023-02-08T13:33:29.219Z,96.00
2023-02-08T13:35:57.272Z,95.90
2023-02-08T13:38:29.138Z,96.00
2023-02-08T13:41:05.830Z,96.00
2023-02-08T13:43:40.147Z,96.20
2023-02-08T13:46:08.009Z,96.00
2023-02-08T13:48:45.930Z,96.10
2023-02-08T13:51:51.595Z,95.90
2023-02-08T13:54:19.992Z,96.20
2023-02-08T13:56:48.952Z,96.20
2023-02-08T13:59:31.187Z,96.20
2023-02-08T14:02:22.545Z,96.30
2023-02-08T14:04:50.858Z,96.50
2023-02-08T14:07:28.076Z,96.40
2023-02-08T14:10:10.230Z,96.50
2023-02-08T14:12:43.102Z,96.50
2023-02-08T14:15:32.606Z,96.50
2023-02-08T14:18:01.457Z,96.60
2023-02-08T14:20:34.982Z,96.60
2023-02-08T14:23:04.363Z,96.60
2023-02-08T14:25:41.667Z,96.70
2023-02-08T14:28:24.478Z,96.80
2023-02-08T14:30:54.069Z,96.90
2023-02-08T14:33:25.229Z,96.30
2023-02-08T14:35:55.291Z,96.70
2023-02-08T14:38:53.834Z,96.80
2023-02-08T14:41:50.873Z,97.00
2023-02-08T14:45:01.096Z,96.50
2023-02-08T14:48:03.607Z,96.80
2023-02-08T14:50:35.271Z,97.00
2023-02-08T14:53:06.522Z,97.00
2023-02-08T14:55:38.992Z,96.80
2023-02-08T14:58:08.073Z,97.00
2023-02-08T15:00:37.910Z,97.10
2023-02-08T15:03:06.992Z,96.70
2023-02-08T15:05:39.326Z,96.90
2023-02-08T15:08:06.224Z,96.40
2023-02-08T15:10:33.470Z,96.90
2023-02-08T15:13:02.879Z,97.10
2023-02-08T15:15:33.784Z,97.10
2023-02-08T15:18:01.977Z,97.10
2023-02-08T15:20:30.943Z,97.20
2023-02-08T15:23:02.312Z,97.20
2023-02-08T15:25:30.337Z,97.30
2023-02-08T15:27:59.736Z,95.30
2023-02-08T15:30:31.403Z,96.60
2023-02-08T15:32:59.941Z,96.50
2023-02-08T15:35:28.460Z,96.70
2023-02-08T15:37:57.113Z,96.80
2023-02-08T15:40:27.123Z,96.60
2023-02-08T15:42:53.904Z,96.80
2023-02-08T15:45:26.091Z,96.90
2023-02-08T15:47:54.021Z,97.10
2023-02-08T15:50:23.505Z,96.50
2023-02-08T15:52:56.425Z,97.00
2023-02-08T15:55:24.125Z,96.70
2023-02-08T15:57:57.708Z,96.90
2023-02-08T16:00:30.754Z,96.90
2023-02-08T16:03:00.777Z,96.70
2023-02-08T16:05:31.218Z,96.50
2023-02-08T16:07:58.758Z,96.60
2023-02-08T16:10:31.816Z,96.70
2023-02-08T16:13:00.799Z,96.40
2023-02-08T16:15:39.991Z,93.70
2023-02-08T16:18:30.495Z,95.60
2023-02-08T16:20:58.856Z,96.10
2023-02-08T16:23:27.828Z,96.20
2023-02-08T16:25:55.948Z,96.30
2023-02-08T16:28:27.811Z,94.50
2023-02-08T16:30:56.008Z,95.80
2023-02-08T16:33:23.108Z,96.10
2023-02-08T16:35:50.564Z,96.20
2023-02-08T16:38:21.973Z,96.20
2023-02-08T16:40:49.491Z,96.20
2023-02-08T16:43:18.988Z,96.20
2023-02-08T16:45:45.908Z,96.10
2023-02-08T16:48:30.131Z,96.10
2023-02-08T16:50:56.772Z,95.70
2023-02-08T16:53:40.308Z,95.40
2023-02-08T16:56:10.185Z,95.30
2023-02-08T16:58:40.088Z,95.10
2023-02-08T17:01:13.156Z,95.40
2023-02-08T17:03:40.203Z,95.20
2023-02-08T17:06:07.572Z,93.50
2023-02-08T17:08:35.689Z,95.30
2023-02-08T17:11:02.455Z,95.00
2023-02-08T17:13:29.183Z,94.40
2023-02-08T17:15:57.866Z,94.80
2023-02-08T17:18:24.764Z,95.10
2023-02-08T17:20:51.580Z,94.80
2023-02-08T17:23:18.304Z,95.30
2023-02-08T17:25:47.010Z,94.50
2023-02-08T17:28:17.383Z,93.80
2023-02-08T17:30:45.419Z,94.10
2023-02-08T17:33:13.263Z,94.40
2023-02-08T17:35:40.045Z,93.70
2023-02-08T17:38:06.792Z,93.30
2023-02-08T17:40:36.458Z,93.60
2023-02-08T17:43:05.551Z,93.80
2023-02-08T17:45:32.356Z,93.50
2023-02-08T17:48:00.159Z,93.80
2023-02-08T17:50:26.981Z,93.30
2023-02-08T17:52:53.764Z,93.40
2023-02-08T17:55:20.632Z,92.90
2023-02-08T17:57:47.467Z,92.30
2023-02-08T18:00:18.189Z,91.50
2023-02-08T18:02:45.562Z,91.60
2023-02-08T18:05:12.801Z,91.60
2023-02-08T18:07:39.525Z,91.40
2023-02-08T18:10:07.309Z,91.90
2023-02-08T18:12:34.625Z,91.20
2023-02-08T18:15:01.447Z,90.80
2023-02-08T18:17:29.542Z,90.90
2023-02-08T18:19:56.296Z,91.70
2023-02-08T18:22:25.052Z,91.00
2023-02-08T18:24:51.948Z,90.90
2023-02-08T18:27:18.882Z,90.80
2023-02-08T18:29:45.800Z,90.60
2023-02-08T18:32:12.624Z,90.50
2023-02-08T18:34:40.774Z,90.30
2023-02-08T18:37:07.772Z,90.20
2023-02-08T18:39:34.808Z,90.20
2023-02-08T18:42:01.543Z,90.10
2023-02-08T18:44:28.328Z,90.30
2023-02-08T18:46:55.163Z,90.30
2023-02-08T18:49:21.934Z,90.80
2023-02-08T18:51:50.073Z,90.10
2023-02-08T18:54:17.656Z,90.40
2023-02-08T18:56:45.129Z,90.40
2023-02-08T18:59:12.292Z,90.40
2023-02-08T19:01:39.576Z,90.20
2023-02-08T19:04:06.404Z,90.60
2023-02-08T19:06:36.070Z,90.70
2023-02-08T19:09:06.623Z,90.30
2023-02-08T19:11:36.044Z,90.40
2023-02-08T19:14:04.360Z,90.30
2023-02-08T19:16:32.943Z,90.30
2023-02-08T19:18:59.930Z,90.30
2023-02-08T19:21:28.021Z,90.30
2023-02-08T19:23:55.080Z,90.30
2023-02-08T19:26:24.874Z,90.20
2023-02-08T19:28:52.838Z,90.20
2023-02-08T19:31:22.238Z,90.30
2023-02-08T19:33:50.683Z,90.30
2023-02-08T19:36:19.776Z,90.20
2023-02-08T19:38:47.278Z,90.40
2023-02-08T19:41:16.696Z,90.20
2023-02-08T19:43:45.500Z,90.00
2023-02-08T19:46:14.067Z,90.40
2023-02-08T19:48:40.944Z,90.60
2023-02-08T19:51:07.776Z,90.60
2023-02-08T19:53:34.559Z,90.60
2023-02-08T19:56:03.353Z,90.50
2023-02-08T19:58:30.530Z,90.30
2023-02-08T20:00:59.247Z,90.20
2023-02-08T20:03:26.374Z,90.20
2023-02-08T20:05:53.189Z,90.00
2023-02-08T20:08:20.019Z,90.20
2023-02-08T20:10:47.701Z,90.10
2023-02-08T20:13:14.944Z,90.00
2023-02-08T20:15:44.962Z,90.20
2023-02-08T20:18:14.929Z,90.10
2023-02-08T20:20:42.591Z,90.30
2023-02-08T20:23:21.982Z,90.30
2023-02-08T20:25:49.450Z,90.30
2023-02-08T20:28:16.253Z,89.90
2023-02-08T20:30:43.028Z,90.10
2023-02-08T20:33:09.820Z,90.00
2023-02-08T20:35:38.008Z,89.90
2023-02-08T20:38:04.753Z,89.90
2023-02-08T20:40:31.525Z,90.10
2023-02-08T20:42:58.281Z,90.10
2023-02-08T20:45:25.012Z,90.20
2023-02-08T20:47:51.765Z,90.30
2023-02-08T20:50:20.006Z,90.00
2023-02-08T20:52:48.639Z,90.00
2023-02-08T20:55:15.470Z,90.00
2023-02-08T20:57:42.218Z,90.10
2023-02-08T21:00:10.474Z,90.20
2023-02-08T21:02:37.237Z,90.10
2023-02-08T21:05:04.340Z,89.90
2023-02-08T21:07:31.096Z,90.20
2023-02-08T21:09:59.211Z,90.20
2023-02-08T21:12:26.017Z,90.10
2023-02-08T21:14:52.738Z,90.10
2023-02-08T21:17:19.511Z,90.20
2023-02-08T21:19:46.405Z,90.20
2023-02-08T21:22:13.160Z,90.20
2023-02-08T21:24:39.951Z,90.20
2023-02-08T21:27:08.018Z,90.10
2023-02-08T21:29:34.773Z,90.10
2023-02-08T21:32:01.668Z,90.20
2023-02-08T21:34:28.801Z,90.20
2023-02-08T21:36:55.537Z,90.20
2023-02-08T21:39:22.313Z,90.40
2023-02-08T21:41:49.311Z,90.30
2023-02-08T21:44:17.712Z,90.20
2023-02-08T21:46:44.551Z,90.30
2023-02-08T21:49:11.333Z,90.40
2023-02-08T21:51:38.443Z,90.50
2023-02-08T21:54:05.445Z,90.60
2023-02-08T21:56:32.176Z,90.70
2023-02-08T21:58:58.917Z,90.70
2023-02-08T22:01:27.085Z,90.80
2023-02-08T22:03:53.860Z,90.70
2023-02-08T22:06:20.637Z,90.60
2023-02-08T22:08:47.375Z,90.40
2023-02-08T22:11:14.270Z,90.60
2023-02-08T22:13:43.591Z,90.70
2023-02-08T22:16:10.996Z,90.70
2023-02-08T22:18:39.115Z,91.00
2023-02-08T22:21:06.525Z,90.60
2023-02-08T22:23:33.304Z,90.70
2023-02-08T22:26:00.061Z,90.70
2023-02-08T22:28:26.913Z,90.70
2023-02-08T22:30:53.721Z,90.90
2023-02-08T22:33:20.508Z,90.90
2023-02-08T22:35:48.607Z,90.70
2023-02-08T22:38:16.427Z,90.60
2023-02-08T22:40:43.545Z,90.50
2023-02-08T22:43:10.547Z,90.70
2023-02-08T22:45:37.406Z,90.70
2023-02-08T22:48:06.690Z,90.50
2023-02-08T22:50:33.598Z,90.60
2023-02-08T22:53:01.666Z,90.60
2023-02-08T22:55:28.717Z,90.50
2023-02-08T22:57:55.481Z,90.30
2023-02-08T23:00:22.346Z,90.50
2023-02-08T23:02:49.392Z,90.50
2023-02-08T23:05:16.225Z,90.50
2023-02-08T23:07:42.986Z,90.50
2023-02-08T23:10:11.702Z,90.40
2023-02-08T23:12:38.903Z,90.50
2023-02-08T23:15:06.199Z,90.50
2023-02-08T23:17:35.346Z,90.40
2023-02-08T23:20:02.195Z,90.40
2023-02-08T23:22:29.091Z,90.50
2023-02-08T23:24:55.942Z,90.60
2023-02-08T23:27:24.020Z,90.60
2023-02-08T23:29:50.795Z,90.60
2023-02-08T23:32:17.545Z,90.70
2023-02-08T23:34:44.320Z,90.80
2023-02-08T23:37:11.093Z,90.70
2023-02-08T23:39:37.869Z,90.70
2023-02-08T23:42:04.872Z,90.70
2023-02-08T23:44:32.964Z,90.60
2023-02-08T23:46:59.766Z,90.60
2023-02-08T23:49:26.509Z,90.60
2023-02-08T23:51:53.315Z,90.60
2023-02-08T23:54:20.189Z,90.60
2023-02-08T23:56:46.907Z,90.60
2023-02-08T23:59:13.648Z,90.50
